createdAt,value
2018-01-15T00:00:25.670Z,94.80
2018-01-15T00:02:51.874Z,94.60
2018-01-15T00:05:18.068Z,94.60
2018-01-15T00:07:44.233Z,94.60
2018-01-15T00:10:10.447Z,94.90
2018-01-15T00:12:36.625Z,95.10
2018-01-15T00:15:02.842Z,94.90
2018-01-15T00:17:29.027Z,95.00
2018-01-15T00:19:55.275Z,95.30
2018-01-15T00:22:21.439Z,95.00
2018-01-15T00:24:47.635Z,95.20
2018-01-15T00:27:13.788Z,95.00
2018-01-15T00:29:40.002Z,94.90
2018-01-15T00:32:06.224Z,95.60
2018-01-15T00:34:32.437Z,95.70
2018-01-15T00:36:58.606Z,95.90
2018-01-15T00:39:25.498Z,95.90
2018-01-15T00:41:51.679Z,95.80
2018-01-15T00:44:18.635Z,95.70
2018-01-15T00:46:45.562Z,95.50
2018-01-15T00:49:11.773Z,95.50
2018-01-15T00:51:37.984Z,95.60
2018-01-15T00:54:04.161Z,95.20
2018-01-15T00:56:31.142Z,95.00
2018-01-15T00:58:57.327Z,95.00
2018-01-15T01:01:24.315Z,95.70
2018-01-15T01:03:50.499Z,95.70
2018-01-15T01:06:17.439Z,95.30
2018-01-15T01:08:43.611Z,95.20
2018-01-15T01:11:09.847Z,95.80
2018-01-15T01:13:36.061Z,95.50
2018-01-15T01:16:02.273Z,95.50
2018-01-15T01:18:28.455Z,95.90
2018-01-15T01:20:54.603Z,95.80
2018-01-15T01:23:20.802Z,95.40
2018-01-15T01:25:46.958Z,95.00
2018-01-15T01:28:13.188Z,94.90
2018-01-15T01:30:40.102Z,94.90
2018-01-15T01:33:06.293Z,94.90
2018-01-15T01:35:32.503Z,95.00
2018-01-15T01:37:59.510Z,94.70
2018-01-15T01:40:25.765Z,94.70
2018-01-15T01:42:52.692Z,95.30
2018-01-15T01:45:18.893Z,95.30
2018-01-15T01:47:45.110Z,95.30
2018-01-15T01:50:11.294Z,95.20
2018-01-15T01:52:38.250Z,95.30
2018-01-15T01:55:04.409Z,95.20
2018-01-15T01:57:30.583Z,94.90
2018-01-15T01:59:56.781Z,94.40
2018-01-15T02:02:22.983Z,95.40
2018-01-15T02:04:49.121Z,95.40
2018-01-15T02:07:15.271Z,95.50
2018-01-15T02:09:41.449Z,94.90
2018-01-15T02:12:07.629Z,94.70
2018-01-15T02:14:33.806Z,94.60
2018-01-15T02:17:00.055Z,94.90
2018-01-15T02:19:26.262Z,94.10
2018-01-15T02:21:52.507Z,94.40
2018-01-15T02:24:18.778Z,95.10
2018-01-15T02:26:45.024Z,95.50
2018-01-15T02:29:11.227Z,95.60
2018-01-15T02:31:37.514Z,96.10
2018-01-15T02:34:03.766Z,95.30
2018-01-15T02:36:30.022Z,95.30
2018-01-15T02:38:56.248Z,96.10
2018-01-15T02:41:22.448Z,96.50
2018-01-15T02:43:48.672Z,96.20
2018-01-15T02:46:14.862Z,96.30
2018-01-15T02:48:41.783Z,96.80
2018-01-15T02:51:07.942Z,96.80
2018-01-15T02:53:34.901Z,96.80
2018-01-15T02:56:01.108Z,96.80
2018-01-15T02:58:28.054Z,96.70
2018-01-15T03:00:55.030Z,96.80
2018-01-15T03:03:21.280Z,96.70
2018-01-15T03:05:47.440Z,96.60
2018-01-15T03:08:13.672Z,96.40
2018-01-15T03:10:40.580Z,96.40
2018-01-15T03:13:06.765Z,96.40
2018-01-15T03:15:32.992Z,96.20
2018-01-15T03:17:59.922Z,96.50
2018-01-15T03:20:26.865Z,96.50
2018-01-15T03:22:53.810Z,96.30
2018-01-15T03:25:20.738Z,96.50
2018-01-15T03:27:46.942Z,96.50
2018-01-15T03:30:13.207Z,96.30
2018-01-15T03:32:40.154Z,96.20
2018-01-15T03:35:07.160Z,96.20
2018-01-15T03:37:33.370Z,96.20
2018-01-15T03:39:59.622Z,96.60
2018-01-15T03:42:25.922Z,97.10
2018-01-15T03:44:52.145Z,96.70
2018-01-15T03:47:18.294Z,96.70
2018-01-15T03:49:44.447Z,96.60
2018-01-15T03:52:10.654Z,96.70
2018-01-15T03:54:36.877Z,96.70
2018-01-15T03:57:03.132Z,96.50
2018-01-15T03:59:29.342Z,96.80
2018-01-15T04:01:55.578Z,97.20
2018-01-15T04:04:21.717Z,96.80
2018-01-15T04:06:47.915Z,96.80
2018-01-15T04:09:14.107Z,96.80
2018-01-15T04:11:40.291Z,96.80
2018-01-15T04:14:06.513Z,96.70
2018-01-15T04:16:32.708Z,96.60
2018-01-15T04:18:58.922Z,97.00
2018-01-15T04:21:25.154Z,96.70
2018-01-15T04:23:51.310Z,96.60
2018-01-15T04:26:17.511Z,97.00
2018-01-15T04:28:43.772Z,97.20
2018-01-15T04:31:09.956Z,97.00
2018-01-15T04:33:36.913Z,97.20
2018-01-15T04:36:03.152Z,97.20
2018-01-15T04:38:29.371Z,96.80
2018-01-15T04:40:55.543Z,97.10
2018-01-15T04:43:21.766Z,96.70
2018-01-15T04:45:47.955Z,97.20
2018-01-15T04:48:14.087Z,97.40
2018-01-15T04:50:40.348Z,97.50
2018-01-15T04:53:06.550Z,97.30
2018-01-15T04:55:32.753Z,97.20
2018-01-15T04:57:58.979Z,97.70
2018-01-15T05:00:25.235Z,97.00
2018-01-15T05:02:51.424Z,97.00
2018-01-15T05:05:18.362Z,97.60
2018-01-15T05:07:44.550Z,97.60
2018-01-15T05:10:10.763Z,97.20
2018-01-15T05:12:36.986Z,96.80
2018-01-15T05:15:03.162Z,96.60
2018-01-15T05:17:29.346Z,96.80
2018-01-15T05:19:55.550Z,96.80
2018-01-15T05:22:21.732Z,97.10
2018-01-15T05:24:47.871Z,96.40
2018-01-15T05:27:14.082Z,96.70
2018-01-15T05:29:40.282Z,96.80
2018-01-15T05:32:06.666Z,96.60
2018-01-15T05:34:33.579Z,97.50
2018-01-15T05:36:59.787Z,97.20
2018-01-15T05:39:25.930Z,97.50
2018-01-15T05:41:52.178Z,98.10
2018-01-15T05:44:18.465Z,98.40
2018-01-15T05:46:44.634Z,98.30
2018-01-15T05:49:10.834Z,98.30
2018-01-15T05:51:37.038Z,98.40
2018-01-15T05:54:03.258Z,98.60
2018-01-15T05:56:30.191Z,98.80
2018-01-15T05:58:57.109Z,98.80
2018-01-15T06:01:23.284Z,98.80
2018-01-15T06:03:49.533Z,98.80
2018-01-15T06:06:15.752Z,98.80
2018-01-15T06:08:42.008Z,98.40
2018-01-15T06:11:08.256Z,98.20
2018-01-15T06:13:34.425Z,98.40
2018-01-15T06:16:00.572Z,98.40
2018-01-15T06:18:26.812Z,98.50
2018-01-15T06:20:53.139Z,98.60
2018-01-15T06:23:19.335Z,98.90
2018-01-15T06:25:45.528Z,98.80
2018-01-15T06:28:11.709Z,98.60
2018-01-15T06:30:37.919Z,98.50
2018-01-15T06:33:04.162Z,98.40
2018-01-15T06:35:30.420Z,98.30
2018-01-15T06:37:56.663Z,98.30
2018-01-15T06:40:22.881Z,98.40
2018-01-15T06:42:49.096Z,98.50
2018-01-15T06:45:15.324Z,98.50
2018-01-15T06:47:41.523Z,98.50
2018-01-15T06:50:07.733Z,98.30
2018-01-15T06:52:34.731Z,98.30
2018-01-15T06:55:00.966Z,98.20
2018-01-15T06:57:27.161Z,98.40
2018-01-15T06:59:53.419Z,98.70
2018-01-15T07:02:19.638Z,98.60
2018-01-15T07:04:45.872Z,98.50
2018-01-15T07:07:12.162Z,98.40
2018-01-15T07:09:38.381Z,98.50
2018-01-15T07:12:04.614Z,98.60
2018-01-15T07:14:31.522Z,98.40
2018-01-15T07:16:57.742Z,98.50
2018-01-15T07:19:23.898Z,98.60
2018-01-15T07:21:50.825Z,98.70
2018-01-15T07:24:17.055Z,98.70
2018-01-15T07:26:43.248Z,98.80
2018-01-15T07:29:09.448Z,98.90
2018-01-15T07:31:35.669Z,99.00
2018-01-15T07:34:01.892Z,99.00
2018-01-15T07:36:28.071Z,99.10
2018-01-15T07:38:54.283Z,98.80
2018-01-15T07:41:20.529Z,99.00
2018-01-15T07:43:46.691Z,98.70
2018-01-15T07:46:13.631Z,98.80
2018-01-15T07:48:39.823Z,98.90
2018-01-15T07:51:06.017Z,98.90
2018-01-15T07:53:32.186Z,99.00
2018-01-15T07:55:58.380Z,98.60
2018-01-15T07:58:24.526Z,98.80
2018-01-15T08:00:50.761Z,99.40
2018-01-15T08:03:16.943Z,98.80
2018-01-15T08:05:43.910Z,99.10
2018-01-15T08:08:10.054Z,99.10
2018-01-15T08:10:36.259Z,99.10
2018-01-15T08:13:02.451Z,98.90
2018-01-15T08:15:28.657Z,99.10
2018-01-15T08:17:54.944Z,98.80
2018-01-15T08:20:21.119Z,98.70
2018-01-15T08:22:47.294Z,98.70
2018-01-15T08:25:13.480Z,98.50
2018-01-15T08:27:39.696Z,98.60
2018-01-15T08:30:05.963Z,98.10
2018-01-15T08:32:32.186Z,98.30
2018-01-15T08:34:59.171Z,98.30
2018-01-15T08:37:25.313Z,98.20
2018-01-15T08:39:51.508Z,98.30
2018-01-15T08:42:17.654Z,98.60
2018-01-15T08:44:43.849Z,98.40
2018-01-15T08:47:10.091Z,98.40
2018-01-15T08:49:36.228Z,98.60
2018-01-15T08:52:02.435Z,98.30
2018-01-15T08:54:28.622Z,98.40
2018-01-15T08:56:55.541Z,98.40
2018-01-15T08:59:21.693Z,98.40
2018-01-15T09:01:48.696Z,98.50
2018-01-15T09:04:14.859Z,98.50
2018-01-15T09:06:41.047Z,98.60
2018-01-15T09:09:07.206Z,98.70
2018-01-15T09:11:33.390Z,98.70
2018-01-15T09:13:59.627Z,99.00
2018-01-15T09:16:25.857Z,98.40
2018-01-15T09:18:52.709Z,98.70
2018-01-15T09:21:18.922Z,98.40
2018-01-15T09:23:45.142Z,98.50
2018-01-15T09:26:11.388Z,98.20
2018-01-15T09:28:37.633Z,98.10
2018-01-15T09:31:03.878Z,98.30
2018-01-15T09:33:30.095Z,98.30
2018-01-15T09:35:56.280Z,98.30
2018-01-15T09:38:23.239Z,97.70
2018-01-15T09:40:49.490Z,97.70
2018-01-15T09:43:15.712Z,97.40
2018-01-15T09:45:41.952Z,97.10
2018-01-15T09:48:08.143Z,97.50
2018-01-15T09:50:34.360Z,96.70
2018-01-15T09:53:01.320Z,96.80
2018-01-15T09:55:27.536Z,96.80
2018-01-15T09:57:53.740Z,97.00
2018-01-15T10:00:19.928Z,96.90
2018-01-15T10:02:46.083Z,97.00
2018-01-15T10:05:12.370Z,97.00
2018-01-15T10:07:38.613Z,96.60
2018-01-15T10:10:04.874Z,96.80
2018-01-15T10:12:31.055Z,96.40
2018-01-15T10:14:57.217Z,96.30
2018-01-15T10:17:23.370Z,96.10
2018-01-15T10:19:49.542Z,95.80
2018-01-15T10:22:15.762Z,96.00
2018-01-15T10:24:41.976Z,95.70
2018-01-15T10:27:08.218Z,95.80
2018-01-15T10:29:34.444Z,95.50
2018-01-15T10:32:00.654Z,94.90
2018-01-15T10:34:27.507Z,94.80
2018-01-15T10:36:53.686Z,94.80
2018-01-15T10:39:19.909Z,94.90
2018-01-15T10:41:46.055Z,94.80
2018-01-15T10:44:12.220Z,94.30
2018-01-15T10:46:38.364Z,94.70
2018-01-15T10:49:04.635Z,94.60
2018-01-15T10:51:30.870Z,94.60
2018-01-15T10:53:57.820Z,94.00
2018-01-15T10:56:24.728Z,93.90
2018-01-15T10:58:50.880Z,93.90
2018-01-15T11:01:23.085Z,93.10
2018-01-15T11:03:49.310Z,93.40
2018-01-15T11:06:15.569Z,91.60
2018-01-15T11:08:41.746Z,90.10
2018-01-15T11:11:08.689Z,90.10
2018-01-15T11:13:35.627Z,94.90
2018-01-15T11:16:01.811Z,94.60
2018-01-15T11:18:28.016Z,90.30
2018-01-15T11:20:54.238Z,89.40
2018-01-15T11:23:20.528Z,91.10
2018-01-15T11:25:46.786Z,90.70
2018-01-15T11:28:13.768Z,89.50
2018-01-15T11:30:39.978Z,89.50
2018-01-15T11:33:06.156Z,89.60
2018-01-15T11:35:32.401Z,88.50
2018-01-15T11:37:59.420Z,84.10
2018-01-15T11:40:25.618Z,84.20
2018-01-15T11:42:51.855Z,84.30
2018-01-15T11:45:18.024Z,86.30
2018-01-15T11:47:44.231Z,87.70
2018-01-15T11:50:10.444Z,90.20
2018-01-15T11:52:36.696Z,91.10
2018-01-15T11:55:02.943Z,90.70
2018-01-15T11:57:29.865Z,91.20
2018-01-15T11:59:56.114Z,91.20
2018-01-15T12:02:22.283Z,91.40
2018-01-15T12:04:48.496Z,90.80
2018-01-15T12:07:14.694Z,90.90
2018-01-15T12:09:41.776Z,91.70
2018-01-15T12:12:07.943Z,91.00
2018-01-15T12:14:34.099Z,90.10
2018-01-15T12:17:00.341Z,90.20
2018-01-15T12:19:27.256Z,90.00
2018-01-15T12:21:53.454Z,89.80
2018-01-15T12:24:19.619Z,90.50
2018-01-15T12:26:45.771Z,90.40
2018-01-15T12:29:12.698Z,91.00
2018-01-15T12:31:38.915Z,91.00
2018-01-15T12:34:05.097Z,90.70
2018-01-15T12:36:31.269Z,91.20
2018-01-15T12:38:57.445Z,91.10
2018-01-15T12:41:23.721Z,91.10
2018-01-15T12:43:49.900Z,91.40
2018-01-15T12:46:16.074Z,91.30
2018-01-15T12:48:42.263Z,91.60
2018-01-15T12:51:08.454Z,91.60
2018-01-15T12:53:35.400Z,91.40
2018-01-15T12:56:02.368Z,91.30
2018-01-15T12:58:28.735Z,91.20
2018-01-15T13:00:55.508Z,91.60
2018-01-15T13:03:21.719Z,91.50
2018-01-15T13:06:04.720Z,91.60
2018-01-15T13:11:35.960Z,91.50
2018-01-15T13:14:02.186Z,91.70
2018-01-15T13:16:28.422Z,91.70
2018-01-15T13:18:54.668Z,91.90
2018-01-15T13:21:20.855Z,92.20
2018-01-15T13:23:47.860Z,91.80
2018-01-15T13:26:14.019Z,91.80
2018-01-15T13:28:40.318Z,91.60
2018-01-15T13:31:06.513Z,92.40
2018-01-15T13:33:39.623Z,92.30
2018-01-15T13:36:06.041Z,91.80
2018-01-15T13:38:32.276Z,92.00
2018-01-15T13:40:58.522Z,92.20
2018-01-15T13:43:25.085Z,91.90
2018-01-15T13:45:52.094Z,91.80
2018-01-15T13:48:18.305Z,91.70
2018-01-15T13:50:44.518Z,91.80
2018-01-15T13:53:11.477Z,91.90
2018-01-15T13:55:37.672Z,91.90
2018-01-15T13:58:04.637Z,91.40
2018-01-15T14:00:30.901Z,91.40
2018-01-15T14:02:57.128Z,91.30
2018-01-15T14:05:23.364Z,91.50
2018-01-15T14:07:49.548Z,91.50
2018-01-15T14:10:16.466Z,91.80
2018-01-15T14:12:42.735Z,91.80
2018-01-15T14:15:08.941Z,91.60
2018-01-15T14:17:35.170Z,91.50
2018-01-15T14:20:02.123Z,91.80
2018-01-15T14:22:29.097Z,91.50
2018-01-15T14:24:55.292Z,91.50
2018-01-15T14:27:22.169Z,91.90
2018-01-15T14:29:48.381Z,91.90
2018-01-15T14:32:14.585Z,91.70
2018-01-15T14:34:41.503Z,95.00
2018-01-15T14:37:07.674Z,94.90
2018-01-15T14:39:33.859Z,92.00
2018-01-15T14:42:00.088Z,91.00
2018-01-15T14:44:26.247Z,91.90
2018-01-15T14:46:53.235Z,92.70
2018-01-15T14:49:19.468Z,92.70
2018-01-15T14:51:45.598Z,92.50
2018-01-15T14:54:11.809Z,92.60
2018-01-15T14:56:37.952Z,92.90
2018-01-15T14:59:04.113Z,92.50
2018-01-15T15:01:31.092Z,92.50
2018-01-15T15:03:57.366Z,92.40
2018-01-15T15:06:23.556Z,92.70
2018-01-15T15:08:49.755Z,93.00
2018-01-15T15:11:16.729Z,92.90
2018-01-15T15:13:42.878Z,92.90
2018-01-15T15:16:09.070Z,92.50
2018-01-15T15:18:35.319Z,93.10
2018-01-15T15:21:01.510Z,93.00
2018-01-15T15:23:28.450Z,93.40
2018-01-15T15:25:55.415Z,93.50
2018-01-15T15:28:21.670Z,93.50
2018-01-15T15:30:47.887Z,93.00
2018-01-15T15:33:14.084Z,93.20
2018-01-15T15:35:41.030Z,92.90
2018-01-15T15:38:08.006Z,92.90
2018-01-15T15:40:34.336Z,92.90
2018-01-15T15:43:00.602Z,92.90
2018-01-15T15:45:27.475Z,93.30
2018-01-15T15:47:54.474Z,92.90
2018-01-15T15:50:20.776Z,92.90
2018-01-15T15:52:46.972Z,93.40
2018-01-15T15:55:13.896Z,93.50
2018-01-15T15:57:40.205Z,93.50
2018-01-15T16:00:08.164Z,93.00
2018-01-15T16:02:34.354Z,93.20
2018-01-15T16:05:01.330Z,93.40
2018-01-15T16:07:27.578Z,93.40
2018-01-15T16:09:53.747Z,93.00
2018-01-15T16:12:20.693Z,92.80
2018-01-15T16:14:47.640Z,92.80
2018-01-15T16:17:14.599Z,92.70
2018-01-15T16:19:41.504Z,92.70
2018-01-15T16:22:19.966Z,92.70
2018-01-15T16:24:46.112Z,92.70
2018-01-15T16:27:12.357Z,92.80
2018-01-15T16:29:38.581Z,93.10
2018-01-15T16:32:04.749Z,93.90
2018-01-15T16:34:31.747Z,93.80
2018-01-15T16:36:57.957Z,93.50
2018-01-15T16:39:24.190Z,93.40
2018-01-15T16:41:50.361Z,93.60
2018-01-15T16:44:16.524Z,93.20
2018-01-15T16:46:43.474Z,93.20
2018-01-15T16:49:09.594Z,93.20
2018-01-15T16:51:36.553Z,93.40
2018-01-15T16:54:02.816Z,93.40
2018-01-15T16:56:29.054Z,93.20
2018-01-15T16:58:55.284Z,93.10
2018-01-15T17:01:21.481Z,93.30
2018-01-15T17:03:54.676Z,92.90
2018-01-15T17:06:20.888Z,93.30
2018-01-15T17:08:47.116Z,93.10
2018-01-15T17:11:13.310Z,93.30
2018-01-15T17:13:40.289Z,93.10
2018-01-15T17:16:06.492Z,93.00
2018-01-15T17:18:33.401Z,92.80
2018-01-15T17:20:59.591Z,92.80
2018-01-15T17:23:25.756Z,92.50
2018-01-15T17:25:51.942Z,92.70
2018-01-15T17:28:18.120Z,92.40
2018-01-15T17:30:44.327Z,92.50
2018-01-15T17:33:10.521Z,92.80
2018-01-15T17:35:36.691Z,92.70
2018-01-15T17:38:02.868Z,92.50
2018-01-15T17:40:29.763Z,91.50
2018-01-15T17:42:55.989Z,91.50
2018-01-15T17:45:22.167Z,91.80
2018-01-15T17:47:49.034Z,91.20
2018-01-15T17:50:15.186Z,91.20
2018-01-15T17:52:41.339Z,91.80
2018-01-15T17:55:07.526Z,90.80
2018-01-15T17:57:33.731Z,91.00
2018-01-15T17:59:59.980Z,91.00
2018-01-15T18:02:26.161Z,91.40
2018-01-15T18:04:53.132Z,91.00
2018-01-15T18:07:19.310Z,91.00
2018-01-15T18:09:45.480Z,90.90
2018-01-15T18:12:11.725Z,91.60
2018-01-15T18:14:37.874Z,91.40
2018-01-15T18:17:04.139Z,91.40
2018-01-15T18:19:30.355Z,91.00
2018-01-15T18:21:56.729Z,91.10
2018-01-15T18:24:22.901Z,91.50
2018-01-15T18:26:49.158Z,91.30
2018-01-15T18:29:16.082Z,90.80
2018-01-15T18:31:42.322Z,90.80
2018-01-15T18:34:09.335Z,91.00
2018-01-15T18:36:35.549Z,91.00
2018-01-15T18:39:01.791Z,91.10
2018-01-15T18:41:27.977Z,91.10
2018-01-15T18:43:54.144Z,90.90
2018-01-15T18:46:20.345Z,91.00
2018-01-15T18:48:46.565Z,91.00
2018-01-15T18:51:12.788Z,91.30
2018-01-15T18:53:39.026Z,91.30
2018-01-15T18:56:12.191Z,91.40
2018-01-15T18:58:39.102Z,91.00
2018-01-15T19:01:05.353Z,91.10
2018-01-15T19:03:32.316Z,91.10
2018-01-15T19:05:59.544Z,91.20
2018-01-15T19:08:26.496Z,91.10
2018-01-15T19:10:52.720Z,91.10
2018-01-15T19:13:19.051Z,91.00
2018-01-15T19:15:46.024Z,90.50
2018-01-15T19:18:12.313Z,90.50
2018-01-15T19:20:38.505Z,90.80
2018-01-15T19:23:04.686Z,90.60
2018-01-15T19:25:31.021Z,90.80
2018-01-15T19:27:57.974Z,90.80
2018-01-15T19:30:24.972Z,90.70
2018-01-15T19:32:51.485Z,90.70
2018-01-15T19:35:23.712Z,91.00
2018-01-15T19:37:50.655Z,90.90
2018-01-15T19:40:16.981Z,90.90
2018-01-15T19:42:43.210Z,90.70
2018-01-15T19:45:15.432Z,90.50
2018-01-15T19:47:47.810Z,90.80
2018-01-15T19:50:20.171Z,90.60
2018-01-15T19:52:52.560Z,90.90
2018-01-15T19:55:24.735Z,90.80
2018-01-15T19:57:57.174Z,91.20
2018-01-15T20:00:29.527Z,91.20
2018-01-15T20:03:02.729Z,91.10
2018-01-15T20:08:37.151Z,91.40
2018-01-15T20:11:04.345Z,91.40
2018-01-15T20:13:30.607Z,91.90
2018-01-15T20:15:56.881Z,92.00
2018-01-15T20:18:23.081Z,91.80
2018-01-15T20:20:49.289Z,92.50
2018-01-15T20:23:15.584Z,92.90
2018-01-15T20:25:41.882Z,92.90
2018-01-15T20:28:08.839Z,94.00
2018-01-15T20:30:35.842Z,94.90
2018-01-15T20:33:02.092Z,94.90
2018-01-15T20:35:28.890Z,95.40
2018-01-15T20:37:55.110Z,96.20
2018-01-15T20:40:21.353Z,96.90
2018-01-15T20:42:47.559Z,98.00
2018-01-15T20:45:13.775Z,99.10
2018-01-15T20:47:40.899Z,99.90
2018-01-15T20:50:07.378Z,99.90
2018-01-15T20:52:33.620Z,99.90
2018-01-15T20:54:59.843Z,99.90
2018-01-15T20:57:26.111Z,99.90
2018-01-15T20:59:52.370Z,99.90
2018-01-15T21:02:22.762Z,99.90
2018-01-15T21:08:11.023Z,99.90
2018-01-15T21:10:37.386Z,99.90
2018-01-15T21:13:04.311Z,99.90
2018-01-15T21:15:30.523Z,99.90
2018-01-15T21:17:56.700Z,99.90
2018-01-15T21:20:23.687Z,99.90
2018-01-15T21:22:49.901Z,99.90
2018-01-15T21:25:16.102Z,99.90
2018-01-15T21:27:42.298Z,99.90
2018-01-15T21:30:09.904Z,99.90
2018-01-15T21:32:36.099Z,99.90
2018-01-15T21:35:03.087Z,99.90
2018-01-15T21:37:29.275Z,99.90
2018-01-15T21:39:56.250Z,99.90
2018-01-15T21:42:23.896Z,99.90
2018-01-15T21:44:50.861Z,99.90
2018-01-15T21:47:17.015Z,99.90
2018-01-15T21:49:43.199Z,99.90
2018-01-15T21:52:09.418Z,99.90
2018-01-15T21:54:36.350Z,99.90
2018-01-15T21:57:02.562Z,99.90
2018-01-15T21:59:28.785Z,99.90
2018-01-15T22:01:54.989Z,99.90
2018-01-15T22:04:21.209Z,99.90
2018-01-15T22:06:47.372Z,99.90
2018-01-15T22:09:13.632Z,99.90
2018-01-15T22:11:39.846Z,99.90
2018-01-15T22:14:06.764Z,99.90
2018-01-15T22:16:32.948Z,99.90
2018-01-15T22:18:59.146Z,99.90
2018-01-15T22:21:26.104Z,99.90
2018-01-15T22:23:53.053Z,99.90
2018-01-15T22:26:19.287Z,99.90
2018-01-15T22:28:45.484Z,99.90
2018-01-15T22:31:11.682Z,99.90
2018-01-15T22:33:37.881Z,99.90
2018-01-15T22:36:04.075Z,99.90
2018-01-15T22:38:31.073Z,99.90
2018-01-15T22:40:57.248Z,99.90
2018-01-15T22:43:23.431Z,99.90
2018-01-15T22:45:49.631Z,99.90
2018-01-15T22:48:15.870Z,99.90
2018-01-15T22:50:42.042Z,99.90
2018-01-15T22:53:08.265Z,99.90
2018-01-15T22:55:34.515Z,99.90
2018-01-15T22:58:01.582Z,99.90
2018-01-15T23:00:27.830Z,99.90
2018-01-15T23:02:54.034Z,99.90
2018-01-15T23:05:20.996Z,99.90
2018-01-15T23:07:47.206Z,99.90
2018-01-15T23:10:14.198Z,99.90
2018-01-15T23:12:40.380Z,99.90
2018-01-15T23:15:06.660Z,99.90
2018-01-15T23:17:32.853Z,99.90
2018-01-15T23:19:58.994Z,99.90
2018-01-15T23:22:25.188Z,99.90
2018-01-15T23:24:52.170Z,99.90
2018-01-15T23:27:18.386Z,99.90
2018-01-15T23:29:44.574Z,99.90
2018-01-15T23:32:10.823Z,99.90
2018-01-15T23:34:37.074Z,99.90
2018-01-15T23:37:03.278Z,99.90
2018-01-15T23:39:29.498Z,99.90
2018-01-15T23:41:56.393Z,99.90
2018-01-15T23:44:22.533Z,99.90
2018-01-15T23:46:48.751Z,99.90
2018-01-15T23:49:14.950Z,99.90
2018-01-15T23:51:41.192Z,99.90
2018-01-15T23:54:07.415Z,99.90
2018-01-15T23:56:33.629Z,99.90
2018-01-15T23:58:59.762Z,99.90
